UUWWUSRR

Guest
Details From UUWW - Vnukovo
To USRR - Surgut
Flight Number -
Tags Generated
Created
Modified
Stats Distance 1,169 nm / 2,165 km
Max Altitude 0 ft / 0 m
Waypoints 7
Social Downloads 1
Likes 0
Share VATSIM

Download

Looking for another format? Having issues loading an existing format? Contact us
Advertisement - Login to hide

Notes

Generated

Route

UUWW KONRA DEPOR POBAL PITEP GK USRR

ID Type Via Altitude Latitude Longitude Leg Dist Tot Dist Heading (true) Name
O UUWW APT - 0 ft / 0 m 55.58804˚ 37.24603˚ - 0 nm - -
KONRA FIX - 0 ft / 0 m 57.45000˚ 43.30333˚ 229 nm 229 nm 58° / 63° -
DEPOR FIX - 0 ft / 0 m 59.21667˚ 50.86667˚ 260 nm 490 nm 63° / 69° -
POBAL FIX - 0 ft / 0 m 60.28333˚ 57.60000˚ 213 nm 703 nm 70° / 75° -
PITEP FIX - 0 ft / 0 m 61.03333˚ 65.98333˚ 250 nm 954 nm 76° / 83° -
GK NDB - 0 ft / 0 m 61.34333˚ 73.30000˚ 212 nm 1166 nm 82° / 88° SURGUT NDB
O USRR APT - 0 ft / 0 m 61.34364˚ 73.37581˚ 2 nm 1169 nm 89° / 90° -

Altitude Profile

Advertisement - Login to hide

Weather


0- 5 10 15 20 25 30 35+ Temperature / ° C

Clouds and Precipitation
Forecast for 2018-05-26 12:00 UTC. Updated an hour ago

Ground ~20,000 ft ~40,000 ft Winds

UUWW

Details ICAO UUWW (VKO)
Name VNUKOVO
Region Russia
Timezone Europe/Moscow (UTC+3.0)
Stats Elevation 685 ft / 209 m (AMSL)
Location 55.596061° 37.267664°
Runways 2
Magnetic Variation 11.015° E

METAR

UUWW 261230Z 17002MPS 100V220 CAVOK 19/03 Q1033 R06/000070 NOSIG

Decode

TAF

TAF UUWW 261053Z 2612/2712 09003MPS CAVOK TX20/2612Z TN08/2702Z BECMG 2617/2619 21005MPS BECMG 2707/2709 27008G13MPS

Decode

Departure Runways

ID Width Length Bearing (true) Bearing (mag) Surface Threshold Offset Overrun Length
02 197 ft / 60 m 9,993 ft / 3,046 m 23.36° 12.34° Asphalt 0 ft / 0 m 140 ft / 43 m
06 197 ft / 60 m 9,785 ft / 2,982 m 68.26° 57.24° Asphalt 0 ft / 0 m 250 ft / 76 m
20 197 ft / 60 m 9,993 ft / 3,046 m 203.37° 192.35° Asphalt 0 ft / 0 m 150 ft / 46 m
24 197 ft / 60 m 9,785 ft / 2,982 m 248.29° 237.27° Asphalt 0 ft / 0 m 260 ft / 79 m

USRR

Details ICAO USRR (SGC)
Name SURGUT
Region Russia
Timezone Asia/Yekaterinburg (UTC+5.0)
Stats Elevation 200 ft / 61 m (AMSL)
Location 61.343693° 73.401842°
Runways 1
Magnetic Variation 17.122° E

METAR

USRR 261230Z 36004MPS 9999 BKN044 03/M04 Q1017 R25/CLRD60 NOSIG RMK QFE757

Decode

TAF

TAF TAF USRR 261055Z 2612/2712 35003MPS 9999 BKN020 BECMG 2616/2618 20003MPS BECMG 2702/2704 22007G14MPS

Decode

Destination Runways

ID Width Length Bearing (true) Bearing (mag) Surface Threshold Offset Overrun Length
07 148 ft / 45 m 9,112 ft / 2,778 m 89.72° 72.60° Asphalt 0 ft / 0 m 165 ft / 50 m
25 148 ft / 45 m 9,112 ft / 2,778 m 269.76° 252.64° Asphalt 0 ft / 0 m 165 ft / 50 m

Popular Alternatives